Manila Express — VRCX7 — position and weather

sailwx.info

Track history (hours):
 
Tides and Currents Weather Stations Pressure Air Temp Water Temp Dewpoint Dewpoint Depression Visibility Wind Speed Wind Dir Waves Ship Positions

Manila Express

Last reported at 2017-Jul-01 07:11 UTC. Time now 2017-Aug-18 10:51 UTC.
Position N 01°15' E 104°06'.
Warning: this ship's position is 48 days out of date.

Length 260 m; draft 8.8 m.

Type: Ship (hazmat cat A). MMSI: 477830800.

Date/timePositionNaut miles runAvg speedWind from/ knotsBaromVisibWave heightAir tempDewpointWater temp
2017-Jul-01 07:11N 01°15' E 104°06'313.8
2017-Jul-01 06:58N 01°15' E 104°03'715.0
2017-Jul-01 06:31N 01°13' E 103°56'612.3
2017-Jul-01 06:00N 01°11' E 103°51'3 5.2
2017-Jul-01 05:30N 01°13' E 103°48'5 9.9
2017-Jul-01 05:00N 01°16' E 103°45'1 1.9
2017-Jul-01 04:28N 01°17' E 103°46'0 0.0
2017-Jul-01 03:58N 01°17' E 103°46'0 0.0
2017-Jul-01 03:28N 01°17' E 103°46'0 0.0
2017-Jul-01 02:58N 01°17' E 103°46'0 0.0
2017-Jul-01 02:28N 01°17' E 103°46'0 0.0
2017-Jul-01 01:58N 01°17' E 103°46'0 0.0
2017-Jul-01 01:28N 01°17' E 103°46'0 0.0
2017-Jul-01 00:58N 01°17' E 103°46'0 0.0
2017-Jul-01 00:28N 01°17' E 103°46'0 0.0
2017-Jun-30 23:58N 01°17' E 103°46'0 0.0
2017-Jun-30 23:28N 01°17' E 103°46'0 0.0
2017-Jun-30 22:58N 01°17' E 103°46'0 0.0
2017-Jun-30 22:28N 01°17' E 103°46'0 0.0
2017-Jun-30 21:58N 01°17' E 103°46'0 0.0
2017-Jun-30 21:28N 01°17' E 103°46'0 0.0
2017-Jun-30 20:58N 01°17' E 103°46'0 0.0
2017-Jun-30 20:28N 01°17' E 103°46'0 0.0
2017-Jun-30 19:58N 01°17' E 103°46'0 0.0
2017-Jun-30 19:28N 01°17' E 103°46'0 0.0
2017-Jun-30 18:58N 01°17' E 103°46'0 0.0
2017-Jun-30 18:28N 01°17' E 103°46'0 0.0
2017-Jun-30 17:58N 01°17' E 103°46'0 0.0
2017-Jun-30 17:28N 01°17' E 103°46'0 0.0
2017-Jun-30 16:58N 01°17' E 103°46'0 0.0
2017-Jun-30 16:28N 01°17' E 103°46'0 0.0
2017-Jun-30 15:58N 01°17' E 103°46'0 0.0
2017-Jun-30 15:28N 01°17' E 103°46'0 0.0
2017-Jun-30 14:58N 01°17' E 103°46'0 0.0
2017-Jun-30 14:28N 01°17' E 103°46'0 0.0
2017-Jun-30 13:58N 01°17' E 103°46'0 0.0
2017-Jun-30 13:28N 01°17' E 103°46'0 0.0
2017-Jun-30 12:58N 01°17' E 103°46'0 0.0
2017-Jun-30 12:30N 01°17' E 103°46'0 0.9
2017-Jun-30 12:00N 01°17' E 103°46'1 2.9
2017-Jun-30 11:30N 01°16' E 103°46'4 7.4
2017-Jun-30 11:00N 01°14' E 103°43'611.8
2017-Jun-30 10:30N 01°12' E 103°37'4 7.7
2017-Jun-30 10:00N 01°10' E 103°34'2 4.9
2017-Jun-30 09:30N 01°11' E 103°32'2 4.6
2017-Jun-30 09:00N 01°10' E 103°30'1 2.0
2017-Jun-30 08:30N 01°10' E 103°29'1 2.0
2017-Jun-30 08:00N 01°10' E 103°28'2 3.3
2017-Jun-30 07:30N 01°11' E 103°26'1 2.5
2017-Jun-30 07:00N 01°12' E 103°25'3 5.4
2017-Jun-30 06:28N 01°14' E 103°23'3 6.0
2017-Jun-30 06:00N 01°15' E 103°20'5312.3
2017-Jun-30 01:40N 01°44' E 102°36'513.5
2017-Jun-30 01:19N 01°46' E 102°32'413.4
2017-Jun-30 01:00N 01°48' E 102°28'713.2
2017-Jun-30 00:30N 01°51' E 102°22'  
Track history (hours):
 
Tides and Currents Weather Stations Pressure Air Temp Water Temp Dewpoint Dewpoint Depression Visibility Wind Speed Wind Dir Waves Ship Positions

Manila Express

Last reported at 2017-Jul-01 07:11 UTC. Time now 2017-Aug-18 10:51 UTC.
Position N 01°15' E 104°06'.
Warning: this ship's position is 48 days out of date.

Length 260 m; draft 8.8 m.

Type: Ship (hazmat cat A). MMSI: 477830800.

Date/timePositionNaut miles runAvg speedWind from/ knotsBaromVisibWave heightAir tempDewpointWater temp
2017-Jul-01 07:11N 01°15' E 104°06'313.8
2017-Jul-01 06:58N 01°15' E 104°03'715.0
2017-Jul-01 06:31N 01°13' E 103°56'612.3
2017-Jul-01 06:00N 01°11' E 103°51'3 5.2
2017-Jul-01 05:30N 01°13' E 103°48'5 9.9
2017-Jul-01 05:00N 01°16' E 103°45'1 1.9
2017-Jul-01 04:28N 01°17' E 103°46'0 0.0
2017-Jul-01 03:58N 01°17' E 103°46'0 0.0
2017-Jul-01 03:28N 01°17' E 103°46'0 0.0
2017-Jul-01 02:58N 01°17' E 103°46'0 0.0
2017-Jul-01 02:28N 01°17' E 103°46'0 0.0
2017-Jul-01 01:58N 01°17' E 103°46'0 0.0
2017-Jul-01 01:28N 01°17' E 103°46'0 0.0
2017-Jul-01 00:58N 01°17' E 103°46'0 0.0
2017-Jul-01 00:28N 01°17' E 103°46'0 0.0
2017-Jun-30 23:58N 01°17' E 103°46'0 0.0
2017-Jun-30 23:28N 01°17' E 103°46'0 0.0
2017-Jun-30 22:58N 01°17' E 103°46'0 0.0
2017-Jun-30 22:28N 01°17' E 103°46'0 0.0
2017-Jun-30 21:58N 01°17' E 103°46'0 0.0
2017-Jun-30 21:28N 01°17' E 103°46'0 0.0
2017-Jun-30 20:58N 01°17' E 103°46'0 0.0
2017-Jun-30 20:28N 01°17' E 103°46'0 0.0
2017-Jun-30 19:58N 01°17' E 103°46'0 0.0
2017-Jun-30 19:28N 01°17' E 103°46'0 0.0
2017-Jun-30 18:58N 01°17' E 103°46'0 0.0
2017-Jun-30 18:28N 01°17' E 103°46'0 0.0
2017-Jun-30 17:58N 01°17' E 103°46'0 0.0
2017-Jun-30 17:28N 01°17' E 103°46'0 0.0
2017-Jun-30 16:58N 01°17' E 103°46'0 0.0
2017-Jun-30 16:28N 01°17' E 103°46'0 0.0
2017-Jun-30 15:58N 01°17' E 103°46'0 0.0
2017-Jun-30 15:28N 01°17' E 103°46'0 0.0
2017-Jun-30 14:58N 01°17' E 103°46'0 0.0
2017-Jun-30 14:28N 01°17' E 103°46'0 0.0
2017-Jun-30 13:58N 01°17' E 103°46'0 0.0
2017-Jun-30 13:28N 01°17' E 103°46'0 0.0
2017-Jun-30 12:58N 01°17' E 103°46'0 0.0
2017-Jun-30 12:30N 01°17' E 103°46'0 0.9
2017-Jun-30 12:00N 01°17' E 103°46'1 2.9
2017-Jun-30 11:30N 01°16' E 103°46'4 7.4
2017-Jun-30 11:00N 01°14' E 103°43'611.8
2017-Jun-30 10:30N 01°12' E 103°37'4 7.7
2017-Jun-30 10:00N 01°10' E 103°34'2 4.9
2017-Jun-30 09:30N 01°11' E 103°32'2 4.6
2017-Jun-30 09:00N 01°10' E 103°30'1 2.0
2017-Jun-30 08:30N 01°10' E 103°29'1 2.0
2017-Jun-30 08:00N 01°10' E 103°28'2 3.3
2017-Jun-30 07:30N 01°11' E 103°26'1 2.5
2017-Jun-30 07:00N 01°12' E 103°25'3 5.4
2017-Jun-30 06:28N 01°14' E 103°23'3 6.0
2017-Jun-30 06:00N 01°15' E 103°20'5312.3
2017-Jun-30 01:40N 01°44' E 102°36'513.5
2017-Jun-30 01:19N 01°46' E 102°32'413.4
2017-Jun-30 01:00N 01°48' E 102°28'713.2
2017-Jun-30 00:30N 01°51' E 102°22'  

Dump ship's entire track history